sensor_id;sensor_type;location;lat;lon;timestamp;temperature;humidity
7447;DHT22;3765;47.962;7.952;2022-10-16T00:01:07;14.60;85.40
7447;DHT22;3765;47.962;7.952;2022-10-16T00:03:35;14.60;85.40
7447;DHT22;3765;47.962;7.952;2022-10-16T00:06:04;14.60;85.40
7447;DHT22;3765;47.962;7.952;2022-10-16T00:08:33;14.60;85.40
7447;DHT22;3765;47.962;7.952;2022-10-16T00:11:04;14.60;85.40
7447;DHT22;3765;47.962;7.952;2022-10-16T00:13:33;14.70;85.40
7447;DHT22;3765;47.962;7.952;2022-10-16T00:16:02;14.60;85.40
7447;DHT22;3765;47.962;7.952;2022-10-16T00:18:31;14.60;85.40
7447;DHT22;3765;47.962;7.952;2022-10-16T00:21:03;14.60;85.40
7447;DHT22;3765;47.962;7.952;2022-10-16T00:23:32;14.60;85.40
7447;DHT22;3765;47.962;7.952;2022-10-16T00:26:02;14.60;85.40
7447;DHT22;3765;47.962;7.952;2022-10-16T00:28:30;14.60;85.40
7447;DHT22;3765;47.962;7.952;2022-10-16T00:30:59;14.60;85.30
7447;DHT22;3765;47.962;7.952;2022-10-16T00:33:31;14.60;85.50
7447;DHT22;3765;47.962;7.952;2022-10-16T00:35:59;14.50;85.50
7447;DHT22;3765;47.962;7.952;2022-10-16T00:38:27;14.50;85.50
7447;DHT22;3765;47.962;7.952;2022-10-16T00:40:56;14.50;85.50
7447;DHT22;3765;47.962;7.952;2022-10-16T00:43:37;14.50;85.50
7447;DHT22;3765;47.962;7.952;2022-10-16T00:46:11;14.50;85.50
7447;DHT22;3765;47.962;7.952;2022-10-16T00:48:46;14.50;85.50
7447;DHT22;3765;47.962;7.952;2022-10-16T00:51:18;14.60;85.60
7447;DHT22;3765;47.962;7.952;2022-10-16T00:53:48;14.60;85.60
7447;DHT22;3765;47.962;7.952;2022-10-16T00:56:16;14.50;85.50
7447;DHT22;3765;47.962;7.952;2022-10-16T00:58:45;14.50;85.60
7447;DHT22;3765;47.962;7.952;2022-10-16T01:01:13;14.50;85.60
7447;DHT22;3765;47.962;7.952;2022-10-16T01:03:42;14.50;85.70
7447;DHT22;3765;47.962;7.952;2022-10-16T01:06:21;14.50;85.70
7447;DHT22;3765;47.962;7.952;2022-10-16T01:09:20;14.50;85.70
7447;DHT22;3765;47.962;7.952;2022-10-16T01:11:57;14.60;85.70
7447;DHT22;3765;47.962;7.952;2022-10-16T01:14:34;14.50;85.70
7447;DHT22;3765;47.962;7.952;2022-10-16T01:17:06;14.50;85.80
7447;DHT22;3765;47.962;7.952;2022-10-16T01:19:57;14.60;85.90
7447;DHT22;3765;47.962;7.952;2022-10-16T01:22:37;14.60;85.80
7447;DHT22;3765;47.962;7.952;2022-10-16T01:25:11;14.60;85.80
7447;DHT22;3765;47.962;7.952;2022-10-16T01:27:48;14.60;85.90
7447;DHT22;3765;47.962;7.952;2022-10-16T01:30:20;14.60;85.90
7447;DHT22;3765;47.962;7.952;2022-10-16T01:32:52;14.60;85.90
7447;DHT22;3765;47.962;7.952;2022-10-16T01:35:25;14.60;85.90
7447;DHT22;3765;47.962;7.952;2022-10-16T01:37:57;14.60;85.90
7447;DHT22;3765;47.962;7.952;2022-10-16T01:40:29;14.50;85.80
7447;DHT22;3765;47.962;7.952;2022-10-16T01:43:03;14.50;85.80
7447;DHT22;3765;47.962;7.952;2022-10-16T01:45:33;14.50;85.90
7447;DHT22;3765;47.962;7.952;2022-10-16T01:48:04;14.50;85.90
7447;DHT22;3765;47.962;7.952;2022-10-16T01:50:38;14.30;85.80
7447;DHT22;3765;47.962;7.952;2022-10-16T01:53:09;14.30;85.90
7447;DHT22;3765;47.962;7.952;2022-10-16T01:55:43;14.30;86.10
7447;DHT22;3765;47.962;7.952;2022-10-16T01:58:14;14.30;86.20
7447;DHT22;3765;47.962;7.952;2022-10-16T02:00:45;14.30;86.20
7447;DHT22;3765;47.962;7.952;2022-10-16T02:03:16;14.30;86.20
7447;DHT22;3765;47.962;7.952;2022-10-16T02:05:49;14.30;86.20
7447;DHT22;3765;47.962;7.952;2022-10-16T02:08:18;14.30;86.20
7447;DHT22;3765;47.962;7.952;2022-10-16T02:10:46;14.30;86.20
7447;DHT22;3765;47.962;7.952;2022-10-16T02:13:18;14.30;86.20
7447;DHT22;3765;47.962;7.952;2022-10-16T02:15:48;14.30;86.30
7447;DHT22;3765;47.962;7.952;2022-10-16T02:18:17;14.30;86.30
7447;DHT22;3765;47.962;7.952;2022-10-16T02:20:50;14.30;86.30
7447;DHT22;3765;47.962;7.952;2022-10-16T02:23:24;14.30;86.40
7447;DHT22;3765;47.962;7.952;2022-10-16T02:25:57;14.30;86.40
7447;DHT22;3765;47.962;7.952;2022-10-16T02:28:32;14.30;86.40
7447;DHT22;3765;47.962;7.952;2022-10-16T02:31:05;14.30;86.40
7447;DHT22;3765;47.962;7.952;2022-10-16T02:33:36;14.30;86.40
7447;DHT22;3765;47.962;7.952;2022-10-16T02:36:05;14.20;86.40
7447;DHT22;3765;47.962;7.952;2022-10-16T02:38:34;14.20;86.40
7447;DHT22;3765;47.962;7.952;2022-10-16T02:41:03;14.20;86.40
7447;DHT22;3765;47.962;7.952;2022-10-16T02:43:33;14.10;86.50
7447;DHT22;3765;47.962;7.952;2022-10-16T02:46:01;14.10;86.50
7447;DHT22;3765;47.962;7.952;2022-10-16T02:48:29;14.10;86.60
7447;DHT22;3765;47.962;7.952;2022-10-16T02:50:58;14.10;86.60
7447;DHT22;3765;47.962;7.952;2022-10-16T02:53:26;14.10;86.60
7447;DHT22;3765;47.962;7.952;2022-10-16T02:55:54;14.10;86.60
7447;DHT22;3765;47.962;7.952;2022-10-16T02:58:22;14.10;86.60
7447;DHT22;3765;47.962;7.952;2022-10-16T03:00:51;14.10;86.70
7447;DHT22;3765;47.962;7.952;2022-10-16T03:03:20;14.10;86.60
7447;DHT22;3765;47.962;7.952;2022-10-16T03:05:48;14.20;86.70
7447;DHT22;3765;47.962;7.952;2022-10-16T03:08:16;14.20;86.70
7447;DHT22;3765;47.962;7.952;2022-10-16T03:10:50;14.20;86.70
7447;DHT22;3765;47.962;7.952;2022-10-16T03:13:18;14.20;86.70
7447;DHT22;3765;47.962;7.952;2022-10-16T03:15:48;14.20;86.70
7447;DHT22;3765;47.962;7.952;2022-10-16T03:18:17;14.20;86.80
7447;DHT22;3765;47.962;7.952;2022-10-16T03:20:45;14.10;86.70
7447;DHT22;3765;47.962;7.952;2022-10-16T03:23:13;14.10;86.80
7447;DHT22;3765;47.962;7.952;2022-10-16T03:25:41;14.20;86.80
7447;DHT22;3765;47.962;7.952;2022-10-16T03:28:10;14.10;86.80
7447;DHT22;3765;47.962;7.952;2022-10-16T03:30:38;14.20;86.80
7447;DHT22;3765;47.962;7.952;2022-10-16T03:33:07;14.20;86.80
7447;DHT22;3765;47.962;7.952;2022-10-16T03:35:36;14.20;86.90
7447;DHT22;3765;47.962;7.952;2022-10-16T03:38:04;14.20;86.90
7447;DHT22;3765;47.962;7.952;2022-10-16T03:40:33;14.20;86.80
7447;DHT22;3765;47.962;7.952;2022-10-16T03:43:01;14.20;86.90
7447;DHT22;3765;47.962;7.952;2022-10-16T03:45:29;14.20;86.90
7447;DHT22;3765;47.962;7.952;2022-10-16T03:47:57;14.20;86.90
7447;DHT22;3765;47.962;7.952;2022-10-16T03:50:25;14.20;86.90
7447;DHT22;3765;47.962;7.952;2022-10-16T03:52:55;14.20;86.80
7447;DHT22;3765;47.962;7.952;2022-10-16T03:55:23;14.20;87.00
7447;DHT22;3765;47.962;7.952;2022-10-16T03:57:51;14.30;86.90
7447;DHT22;3765;47.962;7.952;2022-10-16T04:00:19;14.30;86.90
7447;DHT22;3765;47.962;7.952;2022-10-16T04:02:48;14.30;86.80
7447;DHT22;3765;47.962;7.952;2022-10-16T04:05:16;14.30;86.90
7447;DHT22;3765;47.962;7.952;2022-10-16T04:07:44;14.30;86.90
7447;DHT22;3765;47.962;7.952;2022-10-16T04:10:14;14.30;86.90
7447;DHT22;3765;47.962;7.952;2022-10-16T04:12:42;14.30;86.90
7447;DHT22;3765;47.962;7.952;2022-10-16T04:15:10;14.30;86.90
7447;DHT22;3765;47.962;7.952;2022-10-16T04:17:38;14.40;86.90
7447;DHT22;3765;47.962;7.952;2022-10-16T04:20:07;14.30;86.80
7447;DHT22;3765;47.962;7.952;2022-10-16T04:22:35;14.40;86.80
7447;DHT22;3765;47.962;7.952;2022-10-16T04:25:04;14.40;86.80
7447;DHT22;3765;47.962;7.952;2022-10-16T04:27:34;14.40;86.80
7447;DHT22;3765;47.962;7.952;2022-10-16T04:30:02;14.40;86.80
7447;DHT22;3765;47.962;7.952;2022-10-16T04:32:31;14.30;86.80
7447;DHT22;3765;47.962;7.952;2022-10-16T04:34:59;14.30;86.80
7447;DHT22;3765;47.962;7.952;2022-10-16T04:37:27;14.30;86.80
7447;DHT22;3765;47.962;7.952;2022-10-16T04:39:55;14.30;86.90
7447;DHT22;3765;47.962;7.952;2022-10-16T04:42:23;14.30;86.90
7447;DHT22;3765;47.962;7.952;2022-10-16T04:44:53;14.40;87.00
7447;DHT22;3765;47.962;7.952;2022-10-16T04:47:21;14.40;86.90
7447;DHT22;3765;47.962;7.952;2022-10-16T04:49:50;14.40;86.90
7447;DHT22;3765;47.962;7.952;2022-10-16T04:52:18;14.40;86.80
7447;DHT22;3765;47.962;7.952;2022-10-16T04:54:48;14.40;86.90
7447;DHT22;3765;47.962;7.952;2022-10-16T04:57:17;14.40;86.90
7447;DHT22;3765;47.962;7.952;2022-10-16T04:59:45;14.40;86.90
7447;DHT22;3765;47.962;7.952;2022-10-16T05:02:14;14.50;86.90
7447;DHT22;3765;47.962;7.952;2022-10-16T05:04:43;14.50;86.80
7447;DHT22;3765;47.962;7.952;2022-10-16T05:07:11;14.40;86.90
7447;DHT22;3765;47.962;7.952;2022-10-16T05:09:39;14.50;86.80
7447;DHT22;3765;47.962;7.952;2022-10-16T05:12:07;14.40;86.80
7447;DHT22;3765;47.962;7.952;2022-10-16T05:14:35;14.50;86.90
7447;DHT22;3765;47.962;7.952;2022-10-16T05:17:03;14.40;86.90
7447;DHT22;3765;47.962;7.952;2022-10-16T05:19:33;14.40;86.90
7447;DHT22;3765;47.962;7.952;2022-10-16T05:22:01;14.50;86.90
7447;DHT22;3765;47.962;7.952;2022-10-16T05:24:29;14.50;86.80
7447;DHT22;3765;47.962;7.952;2022-10-16T05:26:57;14.50;86.80
7447;DHT22;3765;47.962;7.952;2022-10-16T05:29:25;14.50;86.90
7447;DHT22;3765;47.962;7.952;2022-10-16T05:31:54;14.60;86.80
7447;DHT22;3765;47.962;7.952;2022-10-16T05:34:22;14.50;86.80
7447;DHT22;3765;47.962;7.952;2022-10-16T05:36:51;14.50;86.80
7447;DHT22;3765;47.962;7.952;2022-10-16T05:39:19;14.60;86.80
7447;DHT22;3765;47.962;7.952;2022-10-16T05:41:49;14.50;86.90
7447;DHT22;3765;47.962;7.952;2022-10-16T05:44:18;14.60;86.80
7447;DHT22;3765;47.962;7.952;2022-10-16T05:46:47;14.50;86.80
7447;DHT22;3765;47.962;7.952;2022-10-16T05:49:15;14.50;86.70
7447;DHT22;3765;47.962;7.952;2022-10-16T05:51:43;14.40;86.80
7447;DHT22;3765;47.962;7.952;2022-10-16T05:54:13;14.50;86.80
7447;DHT22;3765;47.962;7.952;2022-10-16T05:56:41;14.50;86.80
7447;DHT22;3765;47.962;7.952;2022-10-16T05:59:10;14.50;86.90
7447;DHT22;3765;47.962;7.952;2022-10-16T06:01:38;14.50;86.80
7447;DHT22;3765;47.962;7.952;2022-10-16T06:04:06;14.50;86.80
7447;DHT22;3765;47.962;7.952;2022-10-16T06:06:34;14.50;86.70
7447;DHT22;3765;47.962;7.952;2022-10-16T06:09:03;14.60;86.90
7447;DHT22;3765;47.962;7.952;2022-10-16T06:11:34;14.60;86.80
7447;DHT22;3765;47.962;7.952;2022-10-16T06:14:02;14.70;86.70
7447;DHT22;3765;47.962;7.952;2022-10-16T06:16:34;14.70;86.70
7447;DHT22;3765;47.962;7.952;2022-10-16T06:19:03;14.80;86.70
7447;DHT22;3765;47.962;7.952;2022-10-16T06:21:33;14.80;86.40
7447;DHT22;3765;47.962;7.952;2022-10-16T06:24:01;14.80;86.50
7447;DHT22;3765;47.962;7.952;2022-10-16T06:26:30;14.90;86.40
7447;DHT22;3765;47.962;7.952;2022-10-16T06:29:00;14.90;86.30
7447;DHT22;3765;47.962;7.952;2022-10-16T06:31:29;14.90;86.30
7447;DHT22;3765;47.962;7.952;2022-10-16T06:33:58;14.90;86.20
7447;DHT22;3765;47.962;7.952;2022-10-16T06:36:27;15.00;86.20
7447;DHT22;3765;47.962;7.952;2022-10-16T06:38:55;15.00;86.10
7447;DHT22;3765;47.962;7.952;2022-10-16T06:41:24;15.10;86.20
7447;DHT22;3765;47.962;7.952;2022-10-16T06:43:52;15.10;86.00
7447;DHT22;3765;47.962;7.952;2022-10-16T06:46:23;15.10;86.10
7447;DHT22;3765;47.962;7.952;2022-10-16T06:48:52;15.20;86.00
7447;DHT22;3765;47.962;7.952;2022-10-16T06:51:21;15.20;85.90
7447;DHT22;3765;47.962;7.952;2022-10-16T06:53:53;15.30;85.90
7447;DHT22;3765;47.962;7.952;2022-10-16T06:56:31;15.30;85.90
7447;DHT22;3765;47.962;7.952;2022-10-16T06:59:00;15.30;85.80
7447;DHT22;3765;47.962;7.952;2022-10-16T07:01:30;15.30;85.70
7447;DHT22;3765;47.962;7.952;2022-10-16T07:03:58;15.20;85.70
7447;DHT22;3765;47.962;7.952;2022-10-16T07:06:27;15.20;85.80
7447;DHT22;3765;47.962;7.952;2022-10-16T07:08:55;15.20;85.70
7447;DHT22;3765;47.962;7.952;2022-10-16T07:11:24;15.20;85.80
7447;DHT22;3765;47.962;7.952;2022-10-16T07:13:52;15.30;85.80
7447;DHT22;3765;47.962;7.952;2022-10-16T07:16:24;15.30;85.70
7447;DHT22;3765;47.962;7.952;2022-10-16T07:18:55;15.30;85.80
7447;DHT22;3765;47.962;7.952;2022-10-16T07:21:27;15.30;85.80
7447;DHT22;3765;47.962;7.952;2022-10-16T07:23:57;15.40;85.70
7447;DHT22;3765;47.962;7.952;2022-10-16T07:26:27;15.40;85.70
7447;DHT22;3765;47.962;7.952;2022-10-16T07:28:56;15.50;85.60
7447;DHT22;3765;47.962;7.952;2022-10-16T07:31:25;15.50;85.60
7447;DHT22;3765;47.962;7.952;2022-10-16T07:33:55;15.50;85.50
7447;DHT22;3765;47.962;7.952;2022-10-16T07:36:25;15.60;85.70
7447;DHT22;3765;47.962;7.952;2022-10-16T07:38:53;15.60;85.50
7447;DHT22;3765;47.962;7.952;2022-10-16T07:41:26;15.70;85.50
7447;DHT22;3765;47.962;7.952;2022-10-16T07:43:55;15.80;85.40
7447;DHT22;3765;47.962;7.952;2022-10-16T07:46:32;15.80;85.40
7447;DHT22;3765;47.962;7.952;2022-10-16T07:49:02;16.00;85.30
7447;DHT22;3765;47.962;7.952;2022-10-16T07:51:30;16.20;85.10
7447;DHT22;3765;47.962;7.952;2022-10-16T07:53:58;16.20;84.90
7447;DHT22;3765;47.962;7.952;2022-10-16T07:56:26;16.30;84.90
7447;DHT22;3765;47.962;7.952;2022-10-16T07:58:55;16.40;84.70
7447;DHT22;3765;47.962;7.952;2022-10-16T08:01:23;16.60;84.50
7447;DHT22;3765;47.962;7.952;2022-10-16T08:03:52;16.70;84.40
7447;DHT22;3765;47.962;7.952;2022-10-16T08:06:22;16.80;84.10
7447;DHT22;3765;47.962;7.952;2022-10-16T08:08:54;16.80;83.90
7447;DHT22;3765;47.962;7.952;2022-10-16T08:11:22;16.90;83.80
7447;DHT22;3765;47.962;7.952;2022-10-16T08:13:54;17.00;83.80
7447;DHT22;3765;47.962;7.952;2022-10-16T08:16:22;17.10;83.70
7447;DHT22;3765;47.962;7.952;2022-10-16T08:18:51;17.10;83.70
7447;DHT22;3765;47.962;7.952;2022-10-16T08:21:22;17.20;83.70
7447;DHT22;3765;47.962;7.952;2022-10-16T08:23:50;17.30;83.60
7447;DHT22;3765;47.962;7.952;2022-10-16T08:26:24;17.30;83.70
7447;DHT22;3765;47.962;7.952;2022-10-16T08:28:53;17.30;83.60
7447;DHT22;3765;47.962;7.952;2022-10-16T08:31:22;17.30;83.50
7447;DHT22;3765;47.962;7.952;2022-10-16T08:33:50;17.40;83.40
7447;DHT22;3765;47.962;7.952;2022-10-16T08:36:19;17.50;83.20
7447;DHT22;3765;47.962;7.952;2022-10-16T08:38:49;17.50;83.00
7447;DHT22;3765;47.962;7.952;2022-10-16T08:44:29;17.70;82.80
7447;DHT22;3765;47.962;7.952;2022-10-16T08:47:05;17.80;82.50
7447;DHT22;3765;47.962;7.952;2022-10-16T08:49:35;18.00;82.40
7447;DHT22;3765;47.962;7.952;2022-10-16T08:52:06;18.10;82.20
7447;DHT22;3765;47.962;7.952;2022-10-16T08:54:44;18.30;82.10
7447;DHT22;3765;47.962;7.952;2022-10-16T08:57:16;18.30;81.90
7447;DHT22;3765;47.962;7.952;2022-10-16T08:59:49;18.30;81.70
7447;DHT22;3765;47.962;7.952;2022-10-16T09:02:25;18.30;81.60
7447;DHT22;3765;47.962;7.952;2022-10-16T09:05:09;18.30;81.50
7447;DHT22;3765;47.962;7.952;2022-10-16T09:07:48;18.40;81.10
7447;DHT22;3765;47.962;7.952;2022-10-16T09:10:34;18.40;80.50
7447;DHT22;3765;47.962;7.952;2022-10-16T09:13:17;18.50;80.30
7447;DHT22;3765;47.962;7.952;2022-10-16T09:15:54;18.70;80.10
7447;DHT22;3765;47.962;7.952;2022-10-16T09:18:33;18.80;79.70
7447;DHT22;3765;47.962;7.952;2022-10-16T09:21:12;19.00;79.40
7447;DHT22;3765;47.962;7.952;2022-10-16T09:23:42;19.10;79.10
7447;DHT22;3765;47.962;7.952;2022-10-16T09:26:14;19.20;78.90
7447;DHT22;3765;47.962;7.952;2022-10-16T09:28:44;19.30;78.80
7447;DHT22;3765;47.962;7.952;2022-10-16T09:31:16;19.40;78.40
7447;DHT22;3765;47.962;7.952;2022-10-16T09:33:48;19.40;78.20
7447;DHT22;3765;47.962;7.952;2022-10-16T09:36:18;19.50;78.10
7447;DHT22;3765;47.962;7.952;2022-10-16T09:38:47;19.60;78.00
7447;DHT22;3765;47.962;7.952;2022-10-16T09:41:20;19.80;77.60
7447;DHT22;3765;47.962;7.952;2022-10-16T09:43:53;20.20;77.20
7447;DHT22;3765;47.962;7.952;2022-10-16T09:46:26;20.30;77.00
7447;DHT22;3765;47.962;7.952;2022-10-16T09:48:56;20.30;76.20
7447;DHT22;3765;47.962;7.952;2022-10-16T09:51:26;20.30;75.90
7447;DHT22;3765;47.962;7.952;2022-10-16T09:53:57;20.40;75.50
7447;DHT22;3765;47.962;7.952;2022-10-16T09:56:29;20.60;75.30
7447;DHT22;3765;47.962;7.952;2022-10-16T09:59:00;20.60;75.00
7447;DHT22;3765;47.962;7.952;2022-10-16T10:01:32;20.70;74.60
7447;DHT22;3765;47.962;7.952;2022-10-16T10:04:04;21.00;74.00
7447;DHT22;3765;47.962;7.952;2022-10-16T10:06:34;21.20;73.40
7447;DHT22;3765;47.962;7.952;2022-10-16T10:09:17;21.30;72.50
7447;DHT22;3765;47.962;7.952;2022-10-16T10:11:50;21.40;72.30
7447;DHT22;3765;47.962;7.952;2022-10-16T10:14:34;21.80;71.70
7447;DHT22;3765;47.962;7.952;2022-10-16T10:17:15;21.90;70.50
7447;DHT22;3765;47.962;7.952;2022-10-16T10:19:49;22.20;70.20
7447;DHT22;3765;47.962;7.952;2022-10-16T10:22:25;22.30;69.60
7447;DHT22;3765;47.962;7.952;2022-10-16T10:25:10;22.50;69.00
7447;DHT22;3765;47.962;7.952;2022-10-16T10:28:00;22.70;68.90
7447;DHT22;3765;47.962;7.952;2022-10-16T10:30:37;22.70;67.20
7447;DHT22;3765;47.962;7.952;2022-10-16T10:33:18;22.80;67.10
7447;DHT22;3765;47.962;7.952;2022-10-16T10:35:56;22.80;66.50
7447;DHT22;3765;47.962;7.952;2022-10-16T10:38:39;23.00;66.20
7447;DHT22;3765;47.962;7.952;2022-10-16T10:44:21;23.10;65.30
7447;DHT22;3765;47.962;7.952;2022-10-16T10:46:56;23.10;63.40
7447;DHT22;3765;47.962;7.952;2022-10-16T10:49:40;23.20;63.20
7447;DHT22;3765;47.962;7.952;2022-10-16T10:52:46;23.10;63.10
7447;DHT22;3765;47.962;7.952;2022-10-16T10:55:23;23.20;63.20
7447;DHT22;3765;47.962;7.952;2022-10-16T11:00:55;23.20;62.40
7447;DHT22;3765;47.962;7.952;2022-10-16T11:03:46;23.30;61.00
7447;DHT22;3765;47.962;7.952;2022-10-16T11:06:26;23.50;60.60
7447;DHT22;3765;47.962;7.952;2022-10-16T11:09:02;23.70;60.70
7447;DHT22;3765;47.962;7.952;2022-10-16T11:11:36;23.80;60.40
7447;DHT22;3765;47.962;7.952;2022-10-16T11:14:11;24.00;59.60
7447;DHT22;3765;47.962;7.952;2022-10-16T11:16:48;24.20;59.10
7447;DHT22;3765;47.962;7.952;2022-10-16T11:19:27;24.20;58.60
7447;DHT22;3765;47.962;7.952;2022-10-16T11:22:01;24.00;57.50
7447;DHT22;3765;47.962;7.952;2022-10-16T11:24:37;24.00;57.80
7447;DHT22;3765;47.962;7.952;2022-10-16T11:27:09;24.20;57.10
7447;DHT22;3765;47.962;7.952;2022-10-16T11:29:45;24.30;56.60
7447;DHT22;3765;47.962;7.952;2022-10-16T11:32:22;24.20;56.50
7447;DHT22;3765;47.962;7.952;2022-10-16T11:34:55;24.30;56.30
7447;DHT22;3765;47.962;7.952;2022-10-16T11:37:27;24.40;56.50
7447;DHT22;3765;47.962;7.952;2022-10-16T11:40:03;24.40;56.30
7447;DHT22;3765;47.962;7.952;2022-10-16T11:42:41;24.40;55.90
7447;DHT22;3765;47.962;7.952;2022-10-16T11:45:21;24.50;55.40
7447;DHT22;3765;47.962;7.952;2022-10-16T11:47:59;24.50;55.20
7447;DHT22;3765;47.962;7.952;2022-10-16T11:50:34;24.50;55.50
7447;DHT22;3765;47.962;7.952;2022-10-16T11:53:11;24.50;55.10
7447;DHT22;3765;47.962;7.952;2022-10-16T11:55:43;24.60;55.00
7447;DHT22;3765;47.962;7.952;2022-10-16T11:58:19;24.50;54.30
7447;DHT22;3765;47.962;7.952;2022-10-16T12:00:57;24.60;54.20
7447;DHT22;3765;47.962;7.952;2022-10-16T12:03:31;24.50;54.10
7447;DHT22;3765;47.962;7.952;2022-10-16T12:06:13;24.70;53.60
7447;DHT22;3765;47.962;7.952;2022-10-16T12:08:43;24.80;53.70
7447;DHT22;3765;47.962;7.952;2022-10-16T12:11:24;25.00;53.00
7447;DHT22;3765;47.962;7.952;2022-10-16T12:14:07;25.20;52.70
7447;DHT22;3765;47.962;7.952;2022-10-16T12:16:53;25.20;51.20
7447;DHT22;3765;47.962;7.952;2022-10-16T12:19:24;25.00;50.60
7447;DHT22;3765;47.962;7.952;2022-10-16T12:21:56;25.00;50.60
7447;DHT22;3765;47.962;7.952;2022-10-16T12:24:34;25.20;50.50
7447;DHT22;3765;47.962;7.952;2022-10-16T12:27:04;25.30;50.20
7447;DHT22;3765;47.962;7.952;2022-10-16T12:29:36;25.50;50.10
7447;DHT22;3765;47.962;7.952;2022-10-16T12:32:06;25.60;50.20
7447;DHT22;3765;47.962;7.952;2022-10-16T12:35:20;25.60;50.00
7447;DHT22;3765;47.962;7.952;2022-10-16T12:37:49;25.50;49.70
7447;DHT22;3765;47.962;7.952;2022-10-16T12:40:26;25.40;49.50
7447;DHT22;3765;47.962;7.952;2022-10-16T12:42:55;25.30;49.70
7447;DHT22;3765;47.962;7.952;2022-10-16T12:45:27;25.30;49.60
7447;DHT22;3765;47.962;7.952;2022-10-16T12:47:59;25.30;49.50
7447;DHT22;3765;47.962;7.952;2022-10-16T12:50:33;25.30;49.80
7447;DHT22;3765;47.962;7.952;2022-10-16T12:53:04;25.30;49.40
7447;DHT22;3765;47.962;7.952;2022-10-16T12:55:52;25.30;49.60
7447;DHT22;3765;47.962;7.952;2022-10-16T13:01:26;24.90;49.00
7447;DHT22;3765;47.962;7.952;2022-10-16T13:07:12;24.80;49.00
7447;DHT22;3765;47.962;7.952;2022-10-16T13:09:54;25.00;48.90
7447;DHT22;3765;47.962;7.952;2022-10-16T13:12:39;25.00;48.90
7447;DHT22;3765;47.962;7.952;2022-10-16T13:15:22;25.30;49.10
7447;DHT22;3765;47.962;7.952;2022-10-16T13:18:00;25.40;49.10
7447;DHT22;3765;47.962;7.952;2022-10-16T13:20:35;25.50;48.60
7447;DHT22;3765;47.962;7.952;2022-10-16T13:23:13;25.80;48.30
7447;DHT22;3765;47.962;7.952;2022-10-16T13:25:58;25.80;48.60
7447;DHT22;3765;47.962;7.952;2022-10-16T13:28:31;26.20;48.10
7447;DHT22;3765;47.962;7.952;2022-10-16T13:31:01;26.20;47.90
7447;DHT22;3765;47.962;7.952;2022-10-16T13:33:32;26.40;47.90
7447;DHT22;3765;47.962;7.952;2022-10-16T13:36:01;26.50;47.20
7447;DHT22;3765;47.962;7.952;2022-10-16T13:38:33;26.20;47.30
7447;DHT22;3765;47.962;7.952;2022-10-16T13:41:03;25.90;47.00
7447;DHT22;3765;47.962;7.952;2022-10-16T13:43:33;25.90;47.00
7447;DHT22;3765;47.962;7.952;2022-10-16T13:46:05;25.80;47.20
7447;DHT22;3765;47.962;7.952;2022-10-16T13:48:34;25.80;47.30
7447;DHT22;3765;47.962;7.952;2022-10-16T13:51:04;25.90;47.60
7447;DHT22;3765;47.962;7.952;2022-10-16T13:53:35;25.70;47.70
7447;DHT22;3765;47.962;7.952;2022-10-16T13:56:06;25.50;47.60
7447;DHT22;3765;47.962;7.952;2022-10-16T13:58:34;25.30;47.40
7447;DHT22;3765;47.962;7.952;2022-10-16T14:01:04;25.50;47.40
7447;DHT22;3765;47.962;7.952;2022-10-16T14:03:34;25.40;46.90
7447;DHT22;3765;47.962;7.952;2022-10-16T14:06:06;25.30;47.80
7447;DHT22;3765;47.962;7.952;2022-10-16T14:08:44;25.90;47.40
7447;DHT22;3765;47.962;7.952;2022-10-16T14:11:12;26.10;47.10
7447;DHT22;3765;47.962;7.952;2022-10-16T14:13:45;26.20;47.20
7447;DHT22;3765;47.962;7.952;2022-10-16T14:16:18;26.30;47.30
7447;DHT22;3765;47.962;7.952;2022-10-16T14:18:56;26.60;46.90
7447;DHT22;3765;47.962;7.952;2022-10-16T14:21:25;26.70;46.20
7447;DHT22;3765;47.962;7.952;2022-10-16T14:23:56;26.80;46.00
7447;DHT22;3765;47.962;7.952;2022-10-16T14:26:26;26.70;45.80
7447;DHT22;3765;47.962;7.952;2022-10-16T14:29:08;26.90;45.80
7447;DHT22;3765;47.962;7.952;2022-10-16T14:31:37;26.70;45.70
7447;DHT22;3765;47.962;7.952;2022-10-16T14:34:24;26.60;45.60
7447;DHT22;3765;47.962;7.952;2022-10-16T14:36:54;26.60;45.10
7447;DHT22;3765;47.962;7.952;2022-10-16T14:39:26;26.50;45.90
7447;DHT22;3765;47.962;7.952;2022-10-16T14:41:56;26.50;46.50
7447;DHT22;3765;47.962;7.952;2022-10-16T14:44:29;26.40;47.20
7447;DHT22;3765;47.962;7.952;2022-10-16T14:47:05;26.10;47.60
7447;DHT22;3765;47.962;7.952;2022-10-16T14:49:34;26.20;48.10
7447;DHT22;3765;47.962;7.952;2022-10-16T14:52:08;26.30;48.20
7447;DHT22;3765;47.962;7.952;2022-10-16T14:54:38;26.50;48.30
7447;DHT22;3765;47.962;7.952;2022-10-16T14:57:16;26.20;48.70
7447;DHT22;3765;47.962;7.952;2022-10-16T14:59:45;26.10;49.10
7447;DHT22;3765;47.962;7.952;2022-10-16T15:02:20;26.10;49.50
7447;DHT22;3765;47.962;7.952;2022-10-16T15:04:51;26.10;49.40
7447;DHT22;3765;47.962;7.952;2022-10-16T15:07:19;25.80;49.80
7447;DHT22;3765;47.962;7.952;2022-10-16T15:09:49;25.40;50.60
7447;DHT22;3765;47.962;7.952;2022-10-16T15:12:17;25.20;51.20
7447;DHT22;3765;47.962;7.952;2022-10-16T15:14:45;25.00;51.60
7447;DHT22;3765;47.962;7.952;2022-10-16T15:17:13;24.80;51.80
7447;DHT22;3765;47.962;7.952;2022-10-16T15:19:47;24.50;52.40
7447;DHT22;3765;47.962;7.952;2022-10-16T15:22:15;24.30;52.80
7447;DHT22;3765;47.962;7.952;2022-10-16T15:24:43;24.20;53.10
7447;DHT22;3765;47.962;7.952;2022-10-16T15:27:13;24.00;53.10
7447;DHT22;3765;47.962;7.952;2022-10-16T15:29:41;23.70;53.30
7447;DHT22;3765;47.962;7.952;2022-10-16T15:32:10;23.40;54.10
7447;DHT22;3765;47.962;7.952;2022-10-16T15:34:38;23.30;54.20
7447;DHT22;3765;47.962;7.952;2022-10-16T15:37:06;23.20;54.60
7447;DHT22;3765;47.962;7.952;2022-10-16T15:39:34;23.20;55.00
7447;DHT22;3765;47.962;7.952;2022-10-16T15:42:07;22.90;55.50
7447;DHT22;3765;47.962;7.952;2022-10-16T15:44:36;22.80;55.80
7447;DHT22;3765;47.962;7.952;2022-10-16T15:47:04;22.50;56.30
7447;DHT22;3765;47.962;7.952;2022-10-16T15:49:32;22.40;56.60
7447;DHT22;3765;47.962;7.952;2022-10-16T15:52:00;22.30;56.90
7447;DHT22;3765;47.962;7.952;2022-10-16T15:54:29;22.00;57.10
7447;DHT22;3765;47.962;7.952;2022-10-16T15:56:57;21.80;57.50
7447;DHT22;3765;47.962;7.952;2022-10-16T15:59:25;21.60;58.10
7447;DHT22;3765;47.962;7.952;2022-10-16T16:01:55;21.50;58.50
7447;DHT22;3765;47.962;7.952;2022-10-16T16:04:23;21.40;59.00
7447;DHT22;3765;47.962;7.952;2022-10-16T16:07:09;21.30;59.40
7447;DHT22;3765;47.962;7.952;2022-10-16T16:09:37;21.10;59.80
7447;DHT22;3765;47.962;7.952;2022-10-16T16:12:05;20.90;60.00
7447;DHT22;3765;47.962;7.952;2022-10-16T16:14:34;20.70;60.40
7447;DHT22;3765;47.962;7.952;2022-10-16T16:17:03;20.70;60.80
7447;DHT22;3765;47.962;7.952;2022-10-16T16:19:32;20.50;61.00
7447;DHT22;3765;47.962;7.952;2022-10-16T16:22:01;20.30;61.40
7447;DHT22;3765;47.962;7.952;2022-10-16T16:24:38;20.30;61.90
7447;DHT22;3765;47.962;7.952;2022-10-16T16:27:06;20.10;62.10
7447;DHT22;3765;47.962;7.952;2022-10-16T16:29:34;19.90;62.40
7447;DHT22;3765;47.962;7.952;2022-10-16T16:32:05;19.70;63.10
7447;DHT22;3765;47.962;7.952;2022-10-16T16:34:35;19.50;63.40
7447;DHT22;3765;47.962;7.952;2022-10-16T16:37:03;19.30;63.70
7447;DHT22;3765;47.962;7.952;2022-10-16T16:39:32;19.20;64.10
7447;DHT22;3765;47.962;7.952;2022-10-16T16:42:00;19.20;64.30
7447;DHT22;3765;47.962;7.952;2022-10-16T16:44:30;19.00;64.70
7447;DHT22;3765;47.962;7.952;2022-10-16T16:46:58;18.90;65.00